首页
METAR-TAF:

METAR-TAF

机场 :

二月四日国际机场

罗安达, 安哥拉

纬度: 08-51S, 经度: 013-14E, 海拔: 74米

当前天气观测

该预报发布于1小时和3分钟前的07:00 UTC
风速5节,风向东转东南
温度 22°C
湿度 88%
气压 1016 hPa
能見度: 5000
少量云层高于1700英尺
多云层高于2000英尺
轻雾

METAR: FNLU 230700Z 11005KT 5000 BR FEW017 BKN020 22/20 Q1016 NOSIG

时间: 09:03 (08:03 UTC)

预报

该预报发布于3小时和3分钟前的05:00 UTC
预报有效从23日的 06点(UTC)到 24日的 12点(UTC)
风速6节,风向东南
能見度: 6000
少量云层高于1800英尺
成为
从 23日的 12点(UTC)到 23日的 14点(UTC)
风速13节,风向西
能见度10公里或以上
少量云层高于2200英尺
短暂存在
从 23日的 13点(UTC)到 23日的 17点(UTC)
能见度10公里或以上
1500米以下无云,无积雨云
成为
从 23日的 20点(UTC)到 23日的 22点(UTC)
风速6节,风向南转西南
能見度: 9000
散云层高于2000英尺

TAF: FNLU 230500Z 2306/2412 14006KT 6000 FEW018 BECMG 2312/2314 28013KT 9999 FEW022 TEMPO 2313/2317 CAVOK BECMG 2320/2322 21006KT 9000 SCT020

超过4000个机场的气象观测和天气预报(METAR&TAF报告)。

可查询的气象台以黄色和红色小点在地图上表示。

将鼠标移到小点上方,可查看气象台名称。

然后点击查看天气观测和预报。

如需切换地图:点击带黑十字的绿色按钮放大地图;点击带横线的绿色按钮缩小地图;或者点击绿色箭头查看邻近地区的地图。


METAR-TAF: